sensor_id;sensor_type;location;lat;lon;timestamp;P1;durP1;ratioP1;P2;durP2;ratioP2
61385;SDS011;47256;18.904;-99.054;2023-04-22T00:00:19;2.97;;;1.80;;
61385;SDS011;47256;18.904;-99.054;2023-04-22T00:02:46;3.20;;;2.22;;
61385;SDS011;47256;18.904;-99.054;2023-04-22T00:05:14;5.35;;;3.45;;
61385;SDS011;47256;18.904;-99.054;2023-04-22T00:07:43;6.47;;;3.28;;
61385;SDS011;47256;18.904;-99.054;2023-04-22T00:10:10;5.35;;;2.88;;
61385;SDS011;47256;18.904;-99.054;2023-04-22T00:12:38;3.17;;;1.90;;
61385;SDS011;47256;18.904;-99.054;2023-04-22T00:15:05;2.92;;;2.00;;
61385;SDS011;47256;18.904;-99.054;2023-04-22T00:17:33;3.15;;;1.77;;
61385;SDS011;47256;18.904;-99.054;2023-04-22T00:20:00;2.10;;;1.73;;
61385;SDS011;47256;18.904;-99.054;2023-04-22T00:22:28;7.28;;;2.22;;
61385;SDS011;47256;18.904;-99.054;2023-04-22T00:24:55;7.20;;;2.00;;
61385;SDS011;47256;18.904;-99.054;2023-04-22T00:27:23;5.22;;;1.60;;
61385;SDS011;47256;18.904;-99.054;2023-04-22T00:29:51;2.88;;;1.65;;
61385;SDS011;47256;18.904;-99.054;2023-04-22T00:32:18;2.03;;;1.42;;
61385;SDS011;47256;18.904;-99.054;2023-04-22T00:34:47;2.38;;;1.33;;
61385;SDS011;47256;18.904;-99.054;2023-04-22T00:37:15;2.05;;;1.30;;
61385;SDS011;47256;18.904;-99.054;2023-04-22T00:39:42;1.63;;;1.50;;
61385;SDS011;47256;18.904;-99.054;2023-04-22T00:42:09;2.30;;;1.67;;
61385;SDS011;47256;18.904;-99.054;2023-04-22T00:44:39;5.55;;;1.88;;
61385;SDS011;47256;18.904;-99.054;2023-04-22T00:47:10;6.30;;;2.00;;
61385;SDS011;47256;18.904;-99.054;2023-04-22T00:49:38;2.97;;;1.40;;
61385;SDS011;47256;18.904;-99.054;2023-04-22T00:52:05;2.13;;;1.45;;
61385;SDS011;47256;18.904;-99.054;2023-04-22T00:54:33;1.38;;;1.25;;
61385;SDS011;47256;18.904;-99.054;2023-04-22T00:57:02;2.10;;;1.50;;
61385;SDS011;47256;18.904;-99.054;2023-04-22T00:59:30;1.83;;;1.55;;
61385;SDS011;47256;18.904;-99.054;2023-04-22T01:01:57;1.85;;;1.65;;
61385;SDS011;47256;18.904;-99.054;2023-04-22T01:04:26;2.20;;;1.60;;
61385;SDS011;47256;18.904;-99.054;2023-04-22T01:06:54;7.43;;;2.35;;
61385;SDS011;47256;18.904;-99.054;2023-04-22T01:09:22;8.18;;;1.92;;
61385;SDS011;47256;18.904;-99.054;2023-04-22T01:11:49;2.17;;;1.48;;
61385;SDS011;47256;18.904;-99.054;2023-04-22T01:14:17;3.25;;;1.48;;
61385;SDS011;47256;18.904;-99.054;2023-04-22T01:16:44;1.98;;;1.65;;
61385;SDS011;47256;18.904;-99.054;2023-04-22T01:19:13;3.13;;;1.80;;
61385;SDS011;47256;18.904;-99.054;2023-04-22T01:21:41;5.65;;;1.73;;
61385;SDS011;47256;18.904;-99.054;2023-04-22T01:24:12;5.18;;;1.52;;
61385;SDS011;47256;18.904;-99.054;2023-04-22T01:26:39;5.25;;;1.85;;
61385;SDS011;47256;18.904;-99.054;2023-04-22T01:29:07;1.98;;;1.50;;
61385;SDS011;47256;18.904;-99.054;2023-04-22T01:31:34;6.13;;;1.63;;
61385;SDS011;47256;18.904;-99.054;2023-04-22T01:34:02;9.05;;;2.25;;
61385;SDS011;47256;18.904;-99.054;2023-04-22T01:36:30;2.95;;;1.95;;
61385;SDS011;47256;18.904;-99.054;2023-04-22T01:38:59;6.40;;;2.08;;
61385;SDS011;47256;18.904;-99.054;2023-04-22T01:41:26;2.58;;;1.67;;
61385;SDS011;47256;18.904;-99.054;2023-04-22T01:43:54;9.88;;;1.73;;
61385;SDS011;47256;18.904;-99.054;2023-04-22T01:46:24;6.43;;;1.92;;
61385;SDS011;47256;18.904;-99.054;2023-04-22T01:48:51;1.67;;;1.50;;
61385;SDS011;47256;18.904;-99.054;2023-04-22T01:51:20;6.93;;;2.58;;
61385;SDS011;47256;18.904;-99.054;2023-04-22T01:53:48;3.13;;;2.10;;
61385;SDS011;47256;18.904;-99.054;2023-04-22T01:56:16;7.75;;;2.28;;
61385;SDS011;47256;18.904;-99.054;2023-04-22T01:58:44;13.57;;;2.67;;
61385;SDS011;47256;18.904;-99.054;2023-04-22T02:01:12;16.80;;;2.42;;
61385;SDS011;47256;18.904;-99.054;2023-04-22T02:03:40;24.10;;;3.70;;
61385;SDS011;47256;18.904;-99.054;2023-04-22T02:06:07;14.60;;;4.05;;
61385;SDS011;47256;18.904;-99.054;2023-04-22T02:08:35;16.83;;;5.43;;
61385;SDS011;47256;18.904;-99.054;2023-04-22T02:11:03;25.45;;;8.15;;
61385;SDS011;47256;18.904;-99.054;2023-04-22T02:13:36;23.38;;;7.18;;
61385;SDS011;47256;18.904;-99.054;2023-04-22T02:16:05;31.38;;;7.45;;
61385;SDS011;47256;18.904;-99.054;2023-04-22T02:18:33;30.33;;;7.47;;
61385;SDS011;47256;18.904;-99.054;2023-04-22T02:21:00;27.33;;;8.63;;
61385;SDS011;47256;18.904;-99.054;2023-04-22T02:23:27;29.23;;;7.63;;
61385;SDS011;47256;18.904;-99.054;2023-04-22T02:25:55;19.40;;;5.65;;
61385;SDS011;47256;18.904;-99.054;2023-04-22T02:28:22;18.35;;;5.47;;
61385;SDS011;47256;18.904;-99.054;2023-04-22T02:30:50;15.20;;;5.15;;
61385;SDS011;47256;18.904;-99.054;2023-04-22T02:33:17;8.32;;;4.47;;
61385;SDS011;47256;18.904;-99.054;2023-04-22T02:35:45;8.73;;;3.97;;
61385;SDS011;47256;18.904;-99.054;2023-04-22T02:38:17;11.00;;;4.50;;
61385;SDS011;47256;18.904;-99.054;2023-04-22T02:40:45;10.77;;;4.90;;
61385;SDS011;47256;18.904;-99.054;2023-04-22T02:43:13;9.68;;;3.65;;
61385;SDS011;47256;18.904;-99.054;2023-04-22T02:45:40;11.80;;;4.10;;
61385;SDS011;47256;18.904;-99.054;2023-04-22T02:48:08;7.03;;;2.97;;
61385;SDS011;47256;18.904;-99.054;2023-04-22T02:50:36;4.40;;;3.03;;
61385;SDS011;47256;18.904;-99.054;2023-04-22T02:53:03;6.88;;;3.30;;
61385;SDS011;47256;18.904;-99.054;2023-04-22T02:55:31;9.57;;;4.18;;
61385;SDS011;47256;18.904;-99.054;2023-04-22T02:57:58;14.57;;;4.20;;
61385;SDS011;47256;18.904;-99.054;2023-04-22T03:00:26;14.70;;;4.47;;
61385;SDS011;47256;18.904;-99.054;2023-04-22T03:02:54;10.85;;;4.10;;
61385;SDS011;47256;18.904;-99.054;2023-04-22T03:05:27;14.52;;;4.43;;
61385;SDS011;47256;18.904;-99.054;2023-04-22T03:07:55;31.35;;;5.72;;
61385;SDS011;47256;18.904;-99.054;2023-04-22T03:10:22;23.63;;;5.25;;
61385;SDS011;47256;18.904;-99.054;2023-04-22T03:12:50;16.10;;;4.85;;
61385;SDS011;47256;18.904;-99.054;2023-04-22T03:15:18;20.08;;;4.82;;
61385;SDS011;47256;18.904;-99.054;2023-04-22T03:17:45;9.02;;;4.28;;
61385;SDS011;47256;18.904;-99.054;2023-04-22T03:20:14;16.17;;;4.50;;
61385;SDS011;47256;18.904;-99.054;2023-04-22T03:22:42;15.73;;;3.85;;
61385;SDS011;47256;18.904;-99.054;2023-04-22T03:25:11;6.43;;;3.78;;
61385;SDS011;47256;18.904;-99.054;2023-04-22T03:27:43;7.28;;;3.55;;
61385;SDS011;47256;18.904;-99.054;2023-04-22T03:30:10;8.30;;;4.28;;
61385;SDS011;47256;18.904;-99.054;2023-04-22T03:32:37;10.10;;;4.53;;
61385;SDS011;47256;18.904;-99.054;2023-04-22T03:35:19;9.98;;;4.55;;
61385;SDS011;47256;18.904;-99.054;2023-04-22T03:37:49;10.70;;;3.97;;
61385;SDS011;47256;18.904;-99.054;2023-04-22T03:40:22;19.10;;;4.32;;
61385;SDS011;47256;18.904;-99.054;2023-04-22T03:42:50;11.45;;;3.42;;
61385;SDS011;47256;18.904;-99.054;2023-04-22T03:45:19;8.13;;;3.85;;
61385;SDS011;47256;18.904;-99.054;2023-04-22T03:47:57;7.90;;;3.65;;
61385;SDS011;47256;18.904;-99.054;2023-04-22T03:50:34;11.30;;;4.65;;
61385;SDS011;47256;18.904;-99.054;2023-04-22T03:53:02;19.83;;;4.50;;
61385;SDS011;47256;18.904;-99.054;2023-04-22T03:55:29;16.35;;;4.57;;
61385;SDS011;47256;18.904;-99.054;2023-04-22T03:57:57;5.95;;;3.35;;
61385;SDS011;47256;18.904;-99.054;2023-04-22T04:00:24;9.60;;;4.30;;
61385;SDS011;47256;18.904;-99.054;2023-04-22T04:03:04;13.35;;;3.65;;
61385;SDS011;47256;18.904;-99.054;2023-04-22T04:05:36;9.10;;;3.95;;
61385;SDS011;47256;18.904;-99.054;2023-04-22T04:08:04;17.30;;;3.92;;
61385;SDS011;47256;18.904;-99.054;2023-04-22T04:10:32;11.02;;;4.10;;
61385;SDS011;47256;18.904;-99.054;2023-04-22T04:13:01;16.83;;;4.13;;
61385;SDS011;47256;18.904;-99.054;2023-04-22T04:15:35;9.77;;;4.75;;
61385;SDS011;47256;18.904;-99.054;2023-04-22T04:18:04;12.38;;;5.15;;
61385;SDS011;47256;18.904;-99.054;2023-04-22T04:20:32;10.18;;;4.63;;
61385;SDS011;47256;18.904;-99.054;2023-04-22T04:23:00;6.30;;;3.75;;
61385;SDS011;47256;18.904;-99.054;2023-04-22T04:25:28;11.00;;;4.28;;
61385;SDS011;47256;18.904;-99.054;2023-04-22T04:28:04;9.87;;;5.10;;
61385;SDS011;47256;18.904;-99.054;2023-04-22T04:30:35;11.70;;;4.68;;
61385;SDS011;47256;18.904;-99.054;2023-04-22T04:33:03;7.93;;;4.60;;
61385;SDS011;47256;18.904;-99.054;2023-04-22T04:35:33;11.02;;;5.00;;
61385;SDS011;47256;18.904;-99.054;2023-04-22T04:38:04;9.90;;;4.43;;
61385;SDS011;47256;18.904;-99.054;2023-04-22T04:40:32;12.45;;;4.18;;
61385;SDS011;47256;18.904;-99.054;2023-04-22T04:43:07;9.07;;;4.32;;
61385;SDS011;47256;18.904;-99.054;2023-04-22T04:45:49;9.10;;;3.92;;
61385;SDS011;47256;18.904;-99.054;2023-04-22T04:48:24;11.75;;;3.60;;
61385;SDS011;47256;18.904;-99.054;2023-04-22T04:50:57;7.65;;;3.92;;
61385;SDS011;47256;18.904;-99.054;2023-04-22T04:53:28;5.93;;;3.55;;
61385;SDS011;47256;18.904;-99.054;2023-04-22T04:55:56;12.95;;;4.50;;
61385;SDS011;47256;18.904;-99.054;2023-04-22T04:58:26;8.98;;;4.10;;
61385;SDS011;47256;18.904;-99.054;2023-04-22T17:09:43;25.08;;;12.43;;
61385;SDS011;47256;18.904;-99.054;2023-04-22T17:12:10;15.90;;;11.82;;
61385;SDS011;47256;18.904;-99.054;2023-04-22T17:14:38;31.20;;;13.80;;
61385;SDS011;47256;18.904;-99.054;2023-04-22T17:17:05;20.02;;;11.95;;
61385;SDS011;47256;18.904;-99.054;2023-04-22T17:19:32;31.55;;;12.27;;
61385;SDS011;47256;18.904;-99.054;2023-04-22T17:22:01;113.28;;;69.35;;
61385;SDS011;47256;18.904;-99.054;2023-04-22T17:24:29;49.60;;;16.52;;
61385;SDS011;47256;18.904;-99.054;2023-04-22T17:26:56;21.05;;;12.38;;
61385;SDS011;47256;18.904;-99.054;2023-04-22T17:29:23;36.30;;;14.15;;
61385;SDS011;47256;18.904;-99.054;2023-04-22T17:31:51;21.55;;;14.00;;
61385;SDS011;47256;18.904;-99.054;2023-04-22T17:34:18;22.35;;;13.02;;
61385;SDS011;47256;18.904;-99.054;2023-04-22T17:36:45;19.92;;;11.80;;
61385;SDS011;47256;18.904;-99.054;2023-04-22T17:39:13;23.55;;;13.60;;
61385;SDS011;47256;18.904;-99.054;2023-04-22T17:41:42;30.30;;;13.43;;
61385;SDS011;47256;18.904;-99.054;2023-04-22T17:44:09;24.45;;;11.95;;
61385;SDS011;47256;18.904;-99.054;2023-04-22T17:46:37;58.28;;;29.75;;
61385;SDS011;47256;18.904;-99.054;2023-04-22T17:49:06;36.33;;;16.35;;
61385;SDS011;47256;18.904;-99.054;2023-04-22T17:51:33;21.95;;;12.02;;
61385;SDS011;47256;18.904;-99.054;2023-04-22T17:54:00;18.40;;;12.63;;
61385;SDS011;47256;18.904;-99.054;2023-04-22T17:56:28;14.93;;;11.20;;
61385;SDS011;47256;18.904;-99.054;2023-04-22T17:58:55;25.23;;;18.90;;
61385;SDS011;47256;18.904;-99.054;2023-04-22T18:01:24;32.47;;;20.65;;
61385;SDS011;47256;18.904;-99.054;2023-04-22T18:03:55;20.88;;;13.02;;
61385;SDS011;47256;18.904;-99.054;2023-04-22T18:06:23;16.67;;;11.02;;
61385;SDS011;47256;18.904;-99.054;2023-04-22T18:08:50;24.23;;;12.00;;
61385;SDS011;47256;18.904;-99.054;2023-04-22T18:11:17;21.08;;;11.20;;
61385;SDS011;47256;18.904;-99.054;2023-04-22T18:13:45;16.17;;;11.85;;
61385;SDS011;47256;18.904;-99.054;2023-04-22T18:16:12;43.40;;;15.90;;
61385;SDS011;47256;18.904;-99.054;2023-04-22T18:18:39;22.25;;;13.45;;
61385;SDS011;47256;18.904;-99.054;2023-04-22T18:21:06;16.50;;;10.27;;
61385;SDS011;47256;18.904;-99.054;2023-04-22T18:23:34;24.77;;;11.30;;
61385;SDS011;47256;18.904;-99.054;2023-04-22T18:26:01;56.20;;;20.17;;
61385;SDS011;47256;18.904;-99.054;2023-04-22T18:28:34;42.17;;;18.30;;
61385;SDS011;47256;18.904;-99.054;2023-04-22T18:31:06;20.10;;;11.82;;
61385;SDS011;47256;18.904;-99.054;2023-04-22T18:33:33;18.60;;;11.20;;
61385;SDS011;47256;18.904;-99.054;2023-04-22T18:36:01;16.65;;;12.40;;
61385;SDS011;47256;18.904;-99.054;2023-04-22T18:38:28;20.15;;;12.90;;
61385;SDS011;47256;18.904;-99.054;2023-04-22T18:43:59;21.52;;;10.65;;
61385;SDS011;47256;18.904;-99.054;2023-04-22T18:46:27;32.22;;;14.38;;
61385;SDS011;47256;18.904;-99.054;2023-04-22T18:48:54;16.88;;;11.25;;
61385;SDS011;47256;18.904;-99.054;2023-04-22T18:51:22;17.13;;;12.95;;
61385;SDS011;47256;18.904;-99.054;2023-04-22T18:53:49;24.00;;;13.82;;
61385;SDS011;47256;18.904;-99.054;2023-04-22T18:56:17;63.97;;;20.20;;
61385;SDS011;47256;18.904;-99.054;2023-04-22T18:58:44;31.20;;;15.45;;
61385;SDS011;47256;18.904;-99.054;2023-04-22T19:01:12;23.48;;;11.77;;
61385;SDS011;47256;18.904;-99.054;2023-04-22T19:03:41;73.28;;;25.63;;
61385;SDS011;47256;18.904;-99.054;2023-04-22T19:06:09;18.45;;;11.02;;
61385;SDS011;47256;18.904;-99.054;2023-04-22T19:08:37;27.10;;;12.18;;
61385;SDS011;47256;18.904;-99.054;2023-04-22T19:11:04;19.23;;;11.93;;
61385;SDS011;47256;18.904;-99.054;2023-04-22T19:13:31;28.48;;;12.13;;
61385;SDS011;47256;18.904;-99.054;2023-04-22T19:15:59;18.55;;;12.00;;
61385;SDS011;47256;18.904;-99.054;2023-04-22T19:18:26;21.90;;;12.35;;
61385;SDS011;47256;18.904;-99.054;2023-04-22T19:20:53;22.33;;;12.00;;
61385;SDS011;47256;18.904;-99.054;2023-04-22T19:23:20;21.08;;;12.73;;
61385;SDS011;47256;18.904;-99.054;2023-04-22T19:25:48;23.17;;;13.18;;
61385;SDS011;47256;18.904;-99.054;2023-04-22T19:28:16;21.85;;;12.00;;
61385;SDS011;47256;18.904;-99.054;2023-04-22T19:30:43;20.45;;;13.43;;
61385;SDS011;47256;18.904;-99.054;2023-04-22T19:33:11;18.15;;;12.25;;
61385;SDS011;47256;18.904;-99.054;2023-04-22T19:35:38;30.38;;;16.48;;
61385;SDS011;47256;18.904;-99.054;2023-04-22T19:38:06;21.55;;;15.23;;
61385;SDS011;47256;18.904;-99.054;2023-04-22T19:40:33;25.80;;;13.93;;
61385;SDS011;47256;18.904;-99.054;2023-04-22T19:43:02;21.17;;;13.45;;
61385;SDS011;47256;18.904;-99.054;2023-04-22T19:45:29;34.10;;;13.80;;
61385;SDS011;47256;18.904;-99.054;2023-04-22T19:47:59;22.35;;;12.82;;
61385;SDS011;47256;18.904;-99.054;2023-04-22T19:50:27;40.38;;;16.15;;
61385;SDS011;47256;18.904;-99.054;2023-04-22T19:52:56;23.27;;;12.43;;
61385;SDS011;47256;18.904;-99.054;2023-04-22T19:55:31;50.58;;;15.10;;
61385;SDS011;47256;18.904;-99.054;2023-04-22T19:57:58;58.38;;;17.60;;
61385;SDS011;47256;18.904;-99.054;2023-04-22T20:00:25;19.50;;;11.63;;
61385;SDS011;47256;18.904;-99.054;2023-04-22T20:02:53;25.85;;;12.10;;
61385;SDS011;47256;18.904;-99.054;2023-04-22T20:05:21;29.35;;;11.75;;
61385;SDS011;47256;18.904;-99.054;2023-04-22T20:07:49;20.95;;;10.40;;
61385;SDS011;47256;18.904;-99.054;2023-04-22T20:10:19;14.30;;;8.88;;
61385;SDS011;47256;18.904;-99.054;2023-04-22T20:12:49;18.67;;;10.52;;
61385;SDS011;47256;18.904;-99.054;2023-04-22T20:15:16;32.15;;;13.88;;
61385;SDS011;47256;18.904;-99.054;2023-04-22T20:17:44;21.92;;;11.27;;
61385;SDS011;47256;18.904;-99.054;2023-04-22T20:20:13;13.93;;;8.52;;
61385;SDS011;47256;18.904;-99.054;2023-04-22T20:22:42;14.07;;;9.00;;
61385;SDS011;47256;18.904;-99.054;2023-04-22T20:25:15;16.17;;;8.30;;
61385;SDS011;47256;18.904;-99.054;2023-04-22T20:27:50;21.42;;;8.48;;
61385;SDS011;47256;18.904;-99.054;2023-04-22T20:30:17;27.58;;;9.05;;
61385;SDS011;47256;18.904;-99.054;2023-04-22T20:32:45;19.75;;;8.45;;
61385;SDS011;47256;18.904;-99.054;2023-04-22T20:35:13;13.05;;;8.77;;
61385;SDS011;47256;18.904;-99.054;2023-04-22T20:37:43;13.55;;;8.82;;
61385;SDS011;47256;18.904;-99.054;2023-04-22T20:40:11;15.65;;;9.80;;
61385;SDS011;47256;18.904;-99.054;2023-04-22T20:42:41;14.32;;;8.88;;
61385;SDS011;47256;18.904;-99.054;2023-04-22T20:45:08;11.18;;;8.85;;
61385;SDS011;47256;18.904;-99.054;2023-04-22T20:47:43;26.10;;;9.57;;
61385;SDS011;47256;18.904;-99.054;2023-04-22T20:50:11;17.65;;;9.35;;
61385;SDS011;47256;18.904;-99.054;2023-04-22T20:52:38;20.30;;;9.45;;
61385;SDS011;47256;18.904;-99.054;2023-04-22T20:55:06;11.68;;;9.10;;
61385;SDS011;47256;18.904;-99.054;2023-04-22T20:57:33;12.18;;;9.30;;
61385;SDS011;47256;18.904;-99.054;2023-04-22T21:00:01;17.90;;;10.18;;
61385;SDS011;47256;18.904;-99.054;2023-04-22T21:02:29;11.45;;;8.70;;
61385;SDS011;47256;18.904;-99.054;2023-04-22T21:04:57;19.70;;;8.52;;
61385;SDS011;47256;18.904;-99.054;2023-04-22T21:07:25;14.93;;;8.52;;
61385;SDS011;47256;18.904;-99.054;2023-04-22T21:09:56;10.20;;;8.57;;
61385;SDS011;47256;18.904;-99.054;2023-04-22T21:12:23;18.55;;;8.88;;
61385;SDS011;47256;18.904;-99.054;2023-04-22T21:19:47;14.88;;;9.15;;
61385;SDS011;47256;18.904;-99.054;2023-04-22T21:22:19;14.35;;;9.65;;
61385;SDS011;47256;18.904;-99.054;2023-04-22T21:24:50;22.98;;;10.02;;
61385;SDS011;47256;18.904;-99.054;2023-04-22T21:27:22;15.68;;;9.68;;
61385;SDS011;47256;18.904;-99.054;2023-04-22T21:29:56;22.55;;;10.02;;
61385;SDS011;47256;18.904;-99.054;2023-04-22T21:32:34;49.22;;;12.02;;
61385;SDS011;47256;18.904;-99.054;2023-04-22T21:35:06;16.38;;;10.50;;
61385;SDS011;47256;18.904;-99.054;2023-04-22T21:37:34;13.90;;;9.25;;
61385;SDS011;47256;18.904;-99.054;2023-04-22T21:40:02;17.77;;;9.88;;
61385;SDS011;47256;18.904;-99.054;2023-04-22T21:42:30;15.65;;;10.00;;
61385;SDS011;47256;18.904;-99.054;2023-04-22T21:44:59;15.10;;;10.88;;
61385;SDS011;47256;18.904;-99.054;2023-04-22T21:47:26;22.42;;;11.13;;
61385;SDS011;47256;18.904;-99.054;2023-04-22T21:49:54;16.10;;;9.77;;
61385;SDS011;47256;18.904;-99.054;2023-04-22T21:52:21;24.98;;;10.77;;
61385;SDS011;47256;18.904;-99.054;2023-04-22T21:54:48;14.32;;;9.30;;
61385;SDS011;47256;18.904;-99.054;2023-04-22T21:57:16;15.48;;;9.10;;
61385;SDS011;47256;18.904;-99.054;2023-04-22T21:59:43;12.10;;;9.27;;
61385;SDS011;47256;18.904;-99.054;2023-04-22T22:02:10;15.73;;;7.50;;
61385;SDS011;47256;18.904;-99.054;2023-04-22T22:04:38;9.05;;;6.82;;
61385;SDS011;47256;18.904;-99.054;2023-04-22T22:07:05;9.25;;;7.32;;
61385;SDS011;47256;18.904;-99.054;2023-04-22T22:09:33;16.23;;;7.22;;
61385;SDS011;47256;18.904;-99.054;2023-04-22T22:12:00;11.45;;;7.65;;
61385;SDS011;47256;18.904;-99.054;2023-04-22T22:14:27;11.38;;;6.47;;
61385;SDS011;47256;18.904;-99.054;2023-04-22T22:16:54;9.48;;;7.30;;
61385;SDS011;47256;18.904;-99.054;2023-04-22T22:19:22;25.52;;;7.88;;
61385;SDS011;47256;18.904;-99.054;2023-04-22T22:21:52;10.85;;;6.70;;
61385;SDS011;47256;18.904;-99.054;2023-04-22T22:24:19;13.02;;;7.13;;
61385;SDS011;47256;18.904;-99.054;2023-04-22T22:26:47;37.78;;;9.05;;
61385;SDS011;47256;18.904;-99.054;2023-04-22T22:29:14;21.25;;;8.07;;
61385;SDS011;47256;18.904;-99.054;2023-04-22T22:31:42;17.13;;;7.97;;
61385;SDS011;47256;18.904;-99.054;2023-04-22T22:34:10;10.40;;;7.25;;
61385;SDS011;47256;18.904;-99.054;2023-04-22T22:36:37;13.55;;;7.47;;
61385;SDS011;47256;18.904;-99.054;2023-04-22T22:39:04;37.28;;;8.82;;
61385;SDS011;47256;18.904;-99.054;2023-04-22T22:41:31;11.13;;;7.88;;
61385;SDS011;47256;18.904;-99.054;2023-04-22T22:43:58;15.52;;;8.02;;
61385;SDS011;47256;18.904;-99.054;2023-04-22T22:46:26;13.52;;;7.60;;
61385;SDS011;47256;18.904;-99.054;2023-04-22T22:48:53;10.10;;;8.07;;
61385;SDS011;47256;18.904;-99.054;2023-04-22T22:51:20;13.48;;;8.10;;
61385;SDS011;47256;18.904;-99.054;2023-04-22T22:53:47;12.73;;;8.20;;
61385;SDS011;47256;18.904;-99.054;2023-04-22T22:56:14;27.95;;;9.50;;
61385;SDS011;47256;18.904;-99.054;2023-04-22T22:58:42;43.67;;;10.95;;
61385;SDS011;47256;18.904;-99.054;2023-04-22T23:01:10;134.88;;;18.35;;
61385;SDS011;47256;18.904;-99.054;2023-04-22T23:03:37;13.10;;;8.88;;
61385;SDS011;47256;18.904;-99.054;2023-04-22T23:06:05;20.13;;;9.50;;
61385;SDS011;47256;18.904;-99.054;2023-04-22T23:08:32;12.85;;;9.52;;
61385;SDS011;47256;18.904;-99.054;2023-04-22T23:11:00;36.53;;;11.27;;
61385;SDS011;47256;18.904;-99.054;2023-04-22T23:13:27;34.55;;;10.32;;
61385;SDS011;47256;18.904;-99.054;2023-04-22T23:15:54;15.80;;;9.10;;
61385;SDS011;47256;18.904;-99.054;2023-04-22T23:18:21;27.15;;;10.07;;
61385;SDS011;47256;18.904;-99.054;2023-04-22T23:20:49;15.60;;;8.52;;
61385;SDS011;47256;18.904;-99.054;2023-04-22T23:23:17;12.85;;;8.80;;
61385;SDS011;47256;18.904;-99.054;2023-04-22T23:25:45;15.02;;;9.27;;
61385;SDS011;47256;18.904;-99.054;2023-04-22T23:28:12;21.10;;;10.18;;
61385;SDS011;47256;18.904;-99.054;2023-04-22T23:30:40;16.42;;;9.20;;
61385;SDS011;47256;18.904;-99.054;2023-04-22T23:33:07;34.42;;;10.32;;
61385;SDS011;47256;18.904;-99.054;2023-04-22T23:35:40;61.70;;;13.02;;
61385;SDS011;47256;18.904;-99.054;2023-04-22T23:38:08;44.55;;;10.48;;
61385;SDS011;47256;18.904;-99.054;2023-04-22T23:40:38;17.15;;;8.90;;
61385;SDS011;47256;18.904;-99.054;2023-04-22T23:43:05;16.33;;;9.20;;
61385;SDS011;47256;18.904;-99.054;2023-04-22T23:45:33;21.70;;;9.55;;
61385;SDS011;47256;18.904;-99.054;2023-04-22T23:48:00;18.40;;;10.02;;
61385;SDS011;47256;18.904;-99.054;2023-04-22T23:50:27;17.88;;;9.23;;
61385;SDS011;47256;18.904;-99.054;2023-04-22T23:52:55;28.75;;;9.10;;
61385;SDS011;47256;18.904;-99.054;2023-04-22T23:55:23;18.02;;;9.75;;
61385;SDS011;47256;18.904;-99.054;2023-04-22T23:57:50;13.18;;;9.27;;
